Terminal Aerodrome Forecast
Issued by NWS

Home | Current Version | Previous Version | Text Only | Print | Product List | Glossary On
Versions: 1 2 3 4 5 6 7 8 9 10 11 12 13 14 15 16 17 18 19 20 21 22 23 24 25 26 27 28
000
FTUS45 KPSR 272300
TAFPHX
TAF
KPHX 272320Z 2800/2824 27010KT P6SM SCT080
     FM280200 28006KT P6SM FEW090
     FM280900 10005KT P6SM SKC
     FM282100 29006KT P6SM FEW100=

USA.gov is the U.S. government's official web portal to all federal, state and local government web resources and services.